Time;durP1;ratioP1;P1;durP2;ratioP2;P2;SDS_P1;SDS_P2;PMS_P1;PMS_P2;Temp;Humidity;BMP_temperature;BMP_pressure;BME280_temperature;BME280_humidity;BME280_pressure;Samples;Min_cycle;Max_cycle;Signal;HPM_P1;HPM_P2
2022/06/05 00:01:25;;;;;;;6.88;4.18;;;17.70;63.30;;;;;;5046675;28;20390;-70
2022/06/05 00:04:12;;;;;;;6.90;4.28;;;17.60;63.50;;;;;;5045567;28;20494;-70
2022/06/05 00:07:03;;;;;;;5.75;3.88;;;17.60;63.20;;;;;;5044241;28;20037;-70
2022/06/05 00:09:39;;;;;;;6.72;4.72;;;17.60;63.50;;;;;;5045055;28;20238;-71
2022/06/05 00:12:18;;;;;;;8.07;5.60;;;17.60;63.60;;;;;;5047224;28;20025;-70
2022/06/05 00:14:43;;;;;;;5.68;4.43;;;17.60;63.40;;;;;;5045621;28;20507;-70
2022/06/05 00:17:15;;;;;;;6.10;4.10;;;17.70;63.20;;;;;;5051676;28;20028;-70
2022/06/05 00:19:44;;;;;;;5.47;3.78;;;17.80;62.90;;;;;;5048256;28;20120;-70
2022/06/05 00:22:10;;;;;;;6.32;4.57;;;17.70;62.80;;;;;;5051259;28;20021;-70
2022/06/05 00:24:36;;;;;;;5.20;3.92;;;17.70;63.10;;;;;;5048815;28;20067;-70
2022/06/05 00:27:28;;;;;;;5.82;4.03;;;17.70;63.00;;;;;;5048861;28;20029;-71
2022/06/05 00:29:56;;;;;;;7.07;5.20;;;17.70;63.90;;;;;;5044255;28;20040;-72
2022/06/05 00:32:32;;;;;;;5.60;4.55;;;17.60;63.50;;;;;;5048943;28;20029;-71
2022/06/05 00:34:57;;;;;;;5.60;4.22;;;17.50;63.80;;;;;;5040893;28;20044;-72
2022/06/05 00:37:33;;;;;;;7.38;4.68;;;17.50;63.80;;;;;;5049452;28;20403;-73
2022/06/05 00:40:18;;;;;;;5.55;3.88;;;17.50;64.10;;;;;;5045771;28;20372;-72
2022/06/05 00:42:45;;;;;;;4.90;3.80;;;17.50;64.50;;;;;;5044083;28;20099;-72
2022/06/05 00:45:12;;;;;;;4.13;3.15;;;17.50;64.10;;;;;;5046846;28;20028;-72
2022/06/05 00:47:40;;;;;;;6.70;4.57;;;17.50;63.90;;;;;;5048552;28;20028;-72
2022/06/05 00:50:15;;;;;;;8.02;4.97;;;17.50;63.90;;;;;;5061661;28;20032;-71
2022/06/05 00:52:45;;;;;;;6.03;4.38;;;17.40;64.40;;;;;;5049153;28;20021;-71
2022/06/05 00:55:12;;;;;;;6.63;4.50;;;17.30;64.60;;;;;;5052521;28;20029;-70
2022/06/05 00:57:39;;;;;;;8.75;5.25;;;17.30;64.90;;;;;;5050234;28;20087;-71
2022/06/05 01:00:16;;;;;;;9.68;5.32;;;17.20;65.30;;;;;;5050197;28;20555;-70
2022/06/05 01:02:44;;;;;;;6.40;4.70;;;17.20;65.10;;;;;;5045793;28;20075;-70
2022/06/05 01:05:12;;;;;;;5.97;4.40;;;17.20;65.20;;;;;;5051398;28;20013;-69
2022/06/05 01:07:37;;;;;;;7.10;4.38;;;17.20;65.30;;;;;;5049252;28;20071;-69
2022/06/05 01:10:05;;;;;;;5.45;4.55;;;17.20;65.30;;;;;;5049387;28;20430;-70
2022/06/05 01:12:50;;;;;;;6.57;4.70;;;17.20;64.90;;;;;;5048822;28;20046;-70
2022/06/05 01:15:40;;;;;;;5.95;4.38;;;17.20;65.20;;;;;;5050743;28;20352;-70
2022/06/05 01:18:17;;;;;;;4.93;3.75;;;17.10;65.30;;;;;;5050492;28;20021;-71
2022/06/05 01:21:10;;;;;;;6.18;4.25;;;17.10;65.10;;;;;;5061157;28;20031;-71
2022/06/05 01:24:22;;;;;;;6.50;3.97;;;17.20;65.00;;;;;;5046721;28;20025;-72
2022/06/05 01:27:00;;;;;;;8.55;5.70;;;17.20;64.90;;;;;;5049174;28;20024;-72
2022/06/05 01:29:49;;;;;;;7.07;4.80;;;17.00;65.70;;;;;;5046482;28;20095;-72
2022/06/05 01:32:29;;;;;;;6.45;5.03;;;17.00;66.10;;;;;;5045315;28;20485;-72
2022/06/05 01:34:58;;;;;;;5.78;4.43;;;16.90;66.10;;;;;;5049975;28;20025;-72
2022/06/05 01:37:37;;;;;;;7.07;4.90;;;16.90;66.10;;;;;;5045960;28;20052;-70
2022/06/05 01:40:13;;;;;;;5.88;4.30;;;16.90;66.40;;;;;;5046769;28;20052;-71
2022/06/05 01:42:43;;;;;;;6.15;4.65;;;16.80;66.30;;;;;;5047755;28;20028;-72
2022/06/05 01:45:15;;;;;;;7.68;5.22;;;16.80;66.70;;;;;;5049282;28;20017;-71
2022/06/05 01:47:45;;;;;;;9.45;5.95;;;16.70;67.10;;;;;;5058045;28;20024;-71
2022/06/05 01:50:22;;;;;;;8.43;4.93;;;16.70;67.60;;;;;;5050022;28;20074;-71
2022/06/05 01:53:05;;;;;;;7.78;5.40;;;16.60;67.70;;;;;;5048457;28;20037;-71
2022/06/05 01:55:34;;;;;;;;;;;16.50;68.20;;;;;;5050435;28;20044;-71
2022/06/05 01:58:03;;;;;;;9.32;6.63;;;16.50;68.70;;;;;;5048691;28;19916;-70
2022/06/05 02:00:29;;;;;;;6.50;5.43;;;16.30;69.30;;;;;;5050267;28;20391;-70
2022/06/05 02:03:17;;;;;;;6.55;4.72;;;16.30;69.10;;;;;;5048042;28;20025;-69
2022/06/05 02:05:52;;;;;;;7.53;5.25;;;16.40;69.10;;;;;;5044823;28;20040;-70
2022/06/05 02:08:25;;;;;;;7.03;5.47;;;16.40;69.20;;;;;;5048247;28;20024;-70
2022/06/05 02:11:02;;;;;;;7.00;5.75;;;16.30;69.10;;;;;;5045300;28;20414;-70
2022/06/05 02:13:27;;;;;;;8.52;6.18;;;16.30;69.40;;;;;;5048130;28;20031;-70
2022/06/05 02:15:53;;;;;;;9.52;6.60;;;16.30;69.90;;;;;;5046639;28;20429;-70
2022/06/05 02:18:19;;;;;;;7.82;5.97;;;16.20;70.70;;;;;;5044077;28;20503;-71
2022/06/05 02:20:45;;;;;;;8.20;4.97;;;16.20;70.50;;;;;;5049718;28;20029;-72
2022/06/05 02:23:17;;;;;;;8.30;6.32;;;16.20;69.90;;;;;;5048096;28;20098;-72
2022/06/05 02:25:43;;;;;;;6.85;4.53;;;16.30;70.10;;;;;;5048966;28;20747;-72
2022/06/05 02:28:15;;;;;;;6.75;5.35;;;16.30;69.80;;;;;;5050625;28;20411;-72
2022/06/05 02:31:05;;;;;;;7.90;5.50;;;16.20;69.90;;;;;;5047183;28;20491;-71
2022/06/05 02:34:01;;;;;;;8.93;5.82;;;16.30;69.80;;;;;;5045452;28;20071;-73
2022/06/05 02:36:50;;;;;;;6.97;5.78;;;16.10;70.10;;;;;;5049156;28;20036;-72
2022/06/05 02:39:46;;;;;;;9.13;6.80;;;16.10;70.00;;;;;;5047723;28;20025;-72
2022/06/05 02:42:32;;;;;;;9.15;6.20;;;16.00;70.80;;;;;;5046504;28;20095;-72
2022/06/05 02:45:16;;;;;;;8.15;5.28;;;16.00;71.10;;;;;;5049615;28;20021;-72
2022/06/05 02:48:00;;;;;;;7.28;5.25;;;16.00;70.90;;;;;;5063243;28;20535;-72
2022/06/05 02:50:37;;;;;;;9.70;7.05;;;15.90;71.30;;;;;;5049457;28;20025;-72
2022/06/05 02:53:05;;;;;;;8.45;6.15;;;15.80;71.70;;;;;;5040289;28;20035;-72
2022/06/05 02:55:31;;;;;;;10.48;8.05;;;15.80;71.60;;;;;;5048193;28;20491;-72
2022/06/05 02:57:57;;;;;;;9.02;7.03;;;15.80;71.70;;;;;;5046486;28;20040;-72
2022/06/05 03:00:27;;;;;;;9.30;7.35;;;15.70;72.00;;;;;;5046942;28;20440;-71
2022/06/05 03:05:38;;;;;;;11.57;7.95;;;15.60;72.50;;;;;;5045762;28;20102;-71
2022/06/05 03:08:05;;;;;;;9.55;7.45;;;15.60;72.80;;;;;;5042386;28;20096;-70
2022/06/05 03:10:31;;;;;;;9.68;7.47;;;15.50;73.20;;;;;;5048038;28;20037;-70
2022/06/05 03:12:56;;;;;;;8.13;6.30;;;15.50;73.50;;;;;;5047695;28;20029;-72
2022/06/05 03:15:23;;;;;;;7.95;6.30;;;15.50;73.10;;;;;;5046099;28;20033;-71
2022/06/05 03:17:48;;;;;;;8.75;6.38;;;15.50;72.80;;;;;;5048451;28;20064;-72
2022/06/05 03:20:16;;;;;;;8.13;6.93;;;15.60;72.50;;;;;;5047239;28;20475;-71
2022/06/05 03:22:42;;;;;;;8.20;6.00;;;15.60;72.70;;;;;;5047315;28;20063;-71
2022/06/05 03:25:08;;;;;;;9.60;6.55;;;15.60;72.40;;;;;;5048948;28;20053;-72
2022/06/05 03:27:34;;;;;;;7.90;5.80;;;15.70;72.20;;;;;;5046547;28;20021;-71
2022/06/05 03:30:00;;;;;;;9.68;6.40;;;15.60;72.20;;;;;;5045917;28;20498;-71
2022/06/05 03:32:26;;;;;;;9.90;7.78;;;15.60;72.50;;;;;;5047712;28;20051;-72
2022/06/05 03:34:53;;;;;;;8.95;6.63;;;15.50;72.80;;;;;;5048938;28;20037;-72
2022/06/05 03:37:19;;;;;;;9.65;7.25;;;15.50;72.70;;;;;;5047818;28;20066;-72
2022/06/05 03:39:46;;;;;;;10.10;7.07;;;15.50;72.70;;;;;;5047869;28;20441;-72
2022/06/05 03:42:11;;;;;;;10.20;6.88;;;15.50;72.80;;;;;;5045541;28;20013;-73
2022/06/05 03:44:38;;;;;;;8.85;7.03;;;15.50;72.90;;;;;;5049148;28;20082;-73
2022/06/05 03:47:05;;;;;;;7.97;6.30;;;15.50;72.70;;;;;;5047919;28;20509;-73
2022/06/05 03:49:32;;;;;;;9.75;8.00;;;15.60;72.50;;;;;;5059164;28;20031;-73
2022/06/05 03:51:58;;;;;;;8.48;5.88;;;15.50;72.80;;;;;;5052171;28;20037;-70
2022/06/05 03:54:23;;;;;;;8.90;6.57;;;15.50;72.70;;;;;;5047392;28;20032;-72
2022/06/05 03:56:49;;;;;;;8.15;6.35;;;15.50;72.70;;;;;;5048135;28;20041;-72
2022/06/05 03:59:15;;;;;;;9.18;7.20;;;15.60;72.90;;;;;;5049638;28;20017;-72
2022/06/05 04:01:41;;;;;;;10.43;7.65;;;15.60;73.00;;;;;;5046056;28;20076;-70
2022/06/05 04:04:07;;;;;;;11.50;7.53;;;15.60;73.10;;;;;;5045443;28;20021;-70
2022/06/05 04:06:32;;;;;;;9.50;6.85;;;15.60;73.10;;;;;;5048867;28;20103;-70
2022/06/05 04:09:01;;;;;;;9.52;7.38;;;15.60;72.90;;;;;;5048166;28;20108;-70
2022/06/05 04:11:29;;;;;;;9.32;6.93;;;15.60;73.00;;;;;;5047308;28;20017;-70
2022/06/05 04:13:55;;;;;;;11.23;8.23;;;15.70;72.90;;;;;;5046730;28;20057;-71
2022/06/05 04:16:23;;;;;;;11.30;7.88;;;15.70;73.00;;;;;;5045813;28;20511;-71
2022/06/05 04:18:49;;;;;;;9.63;7.57;;;15.70;73.00;;;;;;5040446;28;20033;-71
2022/06/05 04:21:21;;;;;;;10.32;7.30;;;15.60;73.10;;;;;;5048138;28;20623;-71
2022/06/05 04:23:46;;;;;;;8.98;7.20;;;15.70;73.00;;;;;;5046685;28;20024;-72
2022/06/05 04:26:16;;;;;;;10.18;7.90;;;15.70;73.00;;;;;;5047382;28;20396;-70
2022/06/05 04:28:42;;;;;;;9.27;6.88;;;15.70;73.00;;;;;;5050790;28;20029;-70
2022/06/05 04:31:16;;;;;;;8.75;6.68;;;15.70;72.90;;;;;;5047409;28;20060;-70
2022/06/05 04:33:42;;;;;;;12.30;8.52;;;15.80;72.60;;;;;;5049477;28;20103;-71
2022/06/05 04:36:07;;;;;;;10.23;7.45;;;15.80;72.40;;;;;;5048864;28;20428;-70
2022/06/05 04:38:33;;;;;;;10.63;8.00;;;16.00;72.40;;;;;;5049279;28;20583;-70
2022/06/05 04:40:58;;;;;;;9.25;8.10;;;15.90;72.50;;;;;;5049966;28;20417;-71
2022/06/05 04:43:24;;;;;;;8.88;6.80;;;15.90;72.40;;;;;;5049895;28;20021;-72
2022/06/05 04:45:50;;;;;;;7.35;5.90;;;16.00;72.20;;;;;;5050304;28;20017;-72
2022/06/05 04:48:15;;;;;;;8.18;6.38;;;16.00;72.20;;;;;;5047888;28;20025;-72
2022/06/05 04:50:41;;;;;;;8.32;6.13;;;16.00;72.10;;;;;;5050112;28;20039;-70
2022/06/05 04:53:06;;;;;;;8.98;6.22;;;16.20;71.80;;;;;;5048165;28;20029;-71
2022/06/05 04:55:32;;;;;;;9.57;7.45;;;16.30;71.30;;;;;;5050994;28;20401;-71
2022/06/05 04:57:58;;;;;;;9.35;7.40;;;16.40;71.10;;;;;;5049053;28;20017;-71
2022/06/05 05:00:24;;;;;;;9.25;7.43;;;16.40;71.00;;;;;;5052366;28;20029;-70
2022/06/05 05:02:49;;;;;;;9.77;7.50;;;16.50;71.00;;;;;;5049074;28;20543;-70
2022/06/05 05:05:15;;;;;;;10.38;8.10;;;16.50;70.60;;;;;;5048223;28;20452;-72
2022/06/05 05:07:41;;;;;;;10.07;7.75;;;16.50;70.70;;;;;;5049426;28;20035;-72
2022/06/05 05:10:07;;;;;;;9.48;7.10;;;16.40;71.00;;;;;;5051930;28;20017;-72
2022/06/05 05:12:33;;;;;;;9.40;5.75;;;16.30;71.10;;;;;;5065408;28;20443;-71
2022/06/05 05:14:58;;;;;;;8.98;7.25;;;16.50;70.80;;;;;;5049078;28;20107;-71
2022/06/05 05:17:24;;;;;;;9.25;7.03;;;16.50;70.70;;;;;;5050718;28;20036;-71
2022/06/05 05:19:50;;;;;;;9.98;7.90;;;16.50;70.70;;;;;;5048104;28;20035;-71
2022/06/05 05:22:15;;;;;;;8.85;6.22;;;16.50;70.70;;;;;;5048891;28;20949;-71
2022/06/05 05:24:41;;;;;;;10.02;7.07;;;16.50;70.60;;;;;;5048413;28;20029;-71
2022/06/05 05:27:06;;;;;;;9.10;7.40;;;16.60;70.50;;;;;;5048227;28;20025;-71
2022/06/05 05:29:32;;;;;;;8.35;7.20;;;16.60;70.40;;;;;;5048620;28;20546;-71
2022/06/05 05:31:58;;;;;;;9.63;6.97;;;16.60;70.30;;;;;;5048892;28;20235;-70
2022/06/05 05:34:23;;;;;;;10.80;8.15;;;16.60;70.30;;;;;;5045290;28;20063;-71
2022/06/05 05:36:49;;;;;;;8.75;7.25;;;16.60;70.20;;;;;;5048982;28;20044;-71
2022/06/05 05:42:05;;;;;;;10.27;7.05;;;16.60;70.30;;;;;;5049028;28;20035;-71
2022/06/05 05:44:31;;;;;;;8.95;6.70;;;16.70;70.70;;;;;;5066763;28;20025;-71
2022/06/05 05:46:57;;;;;;;10.55;7.90;;;16.70;69.90;;;;;;5054635;28;20414;-72
2022/06/05 05:49:22;;;;;;;9.02;7.68;;;16.70;69.80;;;;;;5055694;28;20107;-71
2022/06/05 05:51:48;;;;;;;9.43;6.93;;;16.70;69.70;;;;;;5049314;28;20036;-72
2022/06/05 05:54:14;;;;;;;9.60;7.00;;;16.80;69.60;;;;;;5046419;28;20399;-71
2022/06/05 05:56:40;;;;;;;9.25;6.97;;;16.80;69.50;;;;;;5048847;28;20031;-71
2022/06/05 05:59:06;;;;;;;8.45;7.10;;;16.80;69.50;;;;;;5048212;28;20103;-71
2022/06/05 06:01:31;;;;;;;8.68;6.63;;;16.80;69.30;;;;;;5049543;28;20502;-71
2022/06/05 06:03:57;;;;;;;9.05;6.40;;;16.90;69.30;;;;;;5047583;28;20178;-71
2022/06/05 06:06:28;;;;;;;9.68;7.20;;;16.90;69.20;;;;;;5048622;28;20537;-71
2022/06/05 06:08:54;;;;;;;10.23;6.85;;;16.90;69.20;;;;;;5048474;28;20059;-71
2022/06/05 06:11:19;;;;;;;7.43;6.18;;;16.90;69.10;;;;;;5049225;28;20633;-69
2022/06/05 06:13:45;;;;;;;9.50;6.93;;;16.90;69.10;;;;;;5046453;28;20032;-69
2022/06/05 06:16:11;;;;;;;8.35;6.75;;;16.90;69.00;;;;;;5050206;28;20094;-70
2022/06/05 06:18:36;;;;;;;8.63;7.10;;;17.00;69.00;;;;;;5046929;28;20507;-70
2022/06/05 06:21:02;;;;;;;8.77;6.80;;;16.90;69.00;;;;;;5047874;28;20029;-70
2022/06/05 06:23:28;;;;;;;7.93;6.20;;;16.90;69.20;;;;;;5049911;28;20020;-70
2022/06/05 06:25:54;;;;;;;6.85;6.00;;;16.90;69.00;;;;;;5046745;28;20770;-71
2022/06/05 06:28:20;;;;;;;6.10;4.82;;;17.00;68.90;;;;;;5049269;28;20144;-71
2022/06/05 06:30:45;;;;;;;7.28;6.22;;;17.10;68.80;;;;;;5053232;28;20115;-74
2022/06/05 06:33:11;;;;;;;8.65;7.10;;;17.10;68.70;;;;;;5048482;28;20028;-69
2022/06/05 06:35:37;;;;;;;7.93;6.15;;;17.10;68.70;;;;;;5048575;28;20094;-71
2022/06/05 06:38:04;;;;;;;7.15;6.40;;;17.20;68.60;;;;;;5047464;28;20391;-71
2022/06/05 06:40:30;;;;;;;8.30;6.10;;;17.20;68.40;;;;;;5048873;28;20071;-71
2022/06/05 06:42:56;;;;;;;7.53;6.57;;;17.30;68.20;;;;;;5048756;28;20017;-72
2022/06/05 06:45:22;;;;;;;6.30;5.38;;;17.30;68.70;;;;;;5053478;28;20025;-73
2022/06/05 06:47:48;;;;;;;8.43;6.18;;;17.40;68.00;;;;;;5057143;28;20108;-70
2022/06/05 06:50:14;;;;;;;6.47;5.78;;;17.40;68.00;;;;;;5058865;28;20040;-70
2022/06/05 06:52:40;;;;;;;8.05;6.63;;;17.50;67.80;;;;;;5051927;28;20044;-70
2022/06/05 06:55:07;;;;;;;7.43;5.82;;;17.50;67.70;;;;;;5051974;28;20474;-71
2022/06/05 06:57:34;;;;;;;7.18;5.93;;;17.60;67.70;;;;;;5047804;28;20032;-71
2022/06/05 06:59:59;;;;;;;8.32;6.43;;;17.60;67.60;;;;;;5048461;28;20102;-73
2022/06/05 07:02:25;;;;;;;7.97;5.30;;;17.60;67.40;;;;;;5047511;28;20036;-71
2022/06/05 07:04:50;;;;;;;8.13;6.05;;;17.70;67.20;;;;;;5048081;28;20039;-72
2022/06/05 07:07:16;;;;;;;6.32;5.65;;;17.80;66.80;;;;;;5049410;28;20021;-71
2022/06/05 07:09:41;;;;;;;5.93;5.03;;;17.90;66.60;;;;;;5047556;28;20025;-72
2022/06/05 07:12:07;;;;;;;6.70;5.30;;;18.00;66.50;;;;;;5047693;28;20028;-70
2022/06/05 07:14:33;;;;;;;5.60;5.00;;;18.10;66.30;;;;;;5046217;28;20037;-71
2022/06/05 07:16:58;;;;;;;6.22;5.55;;;18.20;66.00;;;;;;5052946;28;20060;-70
2022/06/05 07:19:24;;;;;;;6.60;5.60;;;18.30;65.90;;;;;;5051077;28;20108;-72
2022/06/05 07:21:49;;;;;;;6.20;5.60;;;18.40;66.30;;;;;;5048176;28;20087;-71
2022/06/05 07:24:16;;;;;;;7.05;5.63;;;18.50;65.40;;;;;;5048444;28;20028;-70
2022/06/05 07:26:43;;;;;;;5.90;5.03;;;18.50;65.10;;;;;;5046091;28;20017;-70
2022/06/05 07:29:09;;;;;;;6.70;6.00;;;18.60;65.00;;;;;;5047816;28;20048;-71
2022/06/05 07:31:34;;;;;;;5.30;4.78;;;18.70;64.70;;;;;;5047971;28;20079;-71
2022/06/05 07:34:00;;;;;;;6.45;5.72;;;18.80;64.60;;;;;;5048811;28;20100;-71
2022/06/05 07:36:27;;;;;;;6.53;5.28;;;19.00;64.30;;;;;;5047307;28;20029;-71
2022/06/05 07:38:56;;;;;;;8.10;5.78;;;18.90;64.00;;;;;;5045414;28;20089;-71
2022/06/05 07:41:27;;;;;;;8.75;6.53;;;19.10;63.80;;;;;;5048201;28;20025;-70
2022/06/05 07:43:54;;;;;;;6.07;4.83;;;19.20;63.60;;;;;;5047238;28;20032;-71
2022/06/05 07:46:20;;;;;;;6.88;4.65;;;19.30;63.40;;;;;;5044160;28;20319;-70
2022/06/05 07:48:46;;;;;;;6.43;5.53;;;19.40;62.90;;;;;;5048642;28;20036;-70
2022/06/05 07:56:45;;;;;;;5.07;4.47;;;19.60;62.40;;;;;;5044892;28;20102;-70
2022/06/05 07:59:11;;;;;;;6.13;5.50;;;19.70;62.10;;;;;;5048356;28;20482;-70
2022/06/05 08:01:36;;;;;;;7.68;5.63;;;19.80;61.80;;;;;;5053799;28;20017;-70
2022/06/05 08:04:03;;;;;;;5.93;4.63;;;19.90;61.50;;;;;;5049000;28;20021;-71
2022/06/05 08:06:29;;;;;;;5.28;4.78;;;20.10;61.40;;;;;;5052372;28;20684;-70
2022/06/05 08:08:55;;;;;;;5.82;4.82;;;20.10;61.20;;;;;;5058237;28;20029;-71
2022/06/05 08:11:20;;;;;;;5.07;4.50;;;20.20;61.00;;;;;;5050618;28;20021;-71
2022/06/05 08:13:46;;;;;;;5.88;4.38;;;20.40;60.80;;;;;;5055898;28;20029;-71
2022/06/05 08:16:12;;;;;;;4.63;4.13;;;20.60;60.70;;;;;;5052065;28;20033;-70
2022/06/05 08:18:39;;;;;;;5.68;4.28;;;20.90;60.40;;;;;;5053543;28;20064;-70
2022/06/05 08:21:05;;;;;;;5.18;4.60;;;21.10;59.70;;;;;;5052805;28;20104;-71
2022/06/05 08:23:30;;;;;;;6.13;5.47;;;21.20;59.00;;;;;;5049615;28;20522;-71
2022/06/05 08:25:57;;;;;;;5.15;4.10;;;21.20;58.10;;;;;;5045386;28;20033;-71
2022/06/05 08:28:25;;;;;;;5.90;4.80;;;21.30;58.60;;;;;;5043334;28;20066;-71
2022/06/05 08:30:52;;;;;;;5.40;4.90;;;21.40;58.50;;;;;;5042052;28;20060;-71
2022/06/05 08:33:18;;;;;;;5.43;4.85;;;21.50;58.40;;;;;;5044044;28;20024;-71
2022/06/05 08:35:46;;;;;;;6.13;4.78;;;21.60;58.20;;;;;;5044160;28;20037;-71
2022/06/05 08:41:27;;;;;;;5.60;3.97;;;21.90;58.00;;;;;;5046209;28;20032;-71
2022/06/05 08:44:13;;;;;;;4.47;3.90;;;22.10;57.80;;;;;;5046544;28;20139;-70
2022/06/05 08:46:53;;;;;;;4.88;4.30;;;22.40;57.50;;;;;;5045026;28;20025;-70
2022/06/05 08:49:48;;;;;;;4.85;4.35;;;22.50;57.80;;;;;;5042877;28;20072;-70
2022/06/05 08:52:31;;;;;;;4.38;3.97;;;22.60;56.60;;;;;;5052074;28;20471;-70
2022/06/05 08:55:02;;;;;;;4.35;3.80;;;22.60;56.80;;;;;;5045581;28;20021;-71
2022/06/05 08:57:30;;;;;;;5.65;4.95;;;22.80;56.60;;;;;;5045963;28;20028;-70
2022/06/05 09:00:23;;;;;;;4.55;4.00;;;22.90;56.00;;;;;;5044554;28;20056;-70
2022/06/05 09:03:19;;;;;;;4.70;4.30;;;23.10;55.80;;;;;;5046374;28;20028;-69
2022/06/05 09:05:47;;;;;;;4.30;3.90;;;23.20;55.50;;;;;;5045686;28;20055;-70
2022/06/05 09:08:18;;;;;;;4.00;3.60;;;23.20;55.60;;;;;;5045106;28;20100;-70
2022/06/05 09:10:45;;;;;;;5.68;4.30;;;23.30;55.30;;;;;;5045819;28;20130;-70
2022/06/05 09:13:22;;;;;;;5.20;4.70;;;23.30;54.90;;;;;;5045633;28;20028;-70
2022/06/05 09:16:06;;;;;;;5.45;4.65;;;23.50;55.90;;;;;;5084004;28;20031;-69
2022/06/05 09:18:45;;;;;;;4.50;4.10;;;23.60;54.90;;;;;;5048924;28;20037;-69
2022/06/05 09:21:31;;;;;;;6.47;5.22;;;23.70;54.90;;;;;;5048202;28;20025;-70
2022/06/05 09:23:57;;;;;;;5.18;4.40;;;23.70;54.40;;;;;;5048961;28;20108;-70
2022/06/05 09:26:32;;;;;;;6.22;4.97;;;23.70;54.80;;;;;;5048920;28;20096;-71
2022/06/05 09:29:21;;;;;;;3.97;3.63;;;23.80;54.60;;;;;;5050846;28;20040;-70
2022/06/05 09:32:01;;;;;;;6.50;5.55;;;23.90;54.70;;;;;;5048417;28;20104;-71
2022/06/05 09:34:34;;;;;;;5.65;4.47;;;23.90;54.20;;;;;;5050814;28;20041;-71
2022/06/05 09:37:30;;;;;;;6.38;5.72;;;23.90;54.40;;;;;;5050078;28;20138;-70
2022/06/05 09:40:02;;;;;;;6.97;5.55;;;23.80;54.30;;;;;;5048346;28;20103;-71
2022/06/05 09:42:52;;;;;;;7.28;5.10;;;23.60;54.30;;;;;;5046736;28;20028;-71
2022/06/05 09:45:42;;;;;;;5.07;4.57;;;23.60;54.80;;;;;;5048396;28;20029;-70
2022/06/05 09:48:39;;;;;;;5.80;5.20;;;23.60;55.00;;;;;;5046672;28;20031;-71
2022/06/05 09:51:12;;;;;;;4.90;4.20;;;23.40;54.90;;;;;;5046595;28;20021;-71
2022/06/05 09:53:59;;;;;;;4.80;4.30;;;23.40;55.20;;;;;;5049382;28;20497;-69
2022/06/05 09:56:24;;;;;;;5.68;4.32;;;23.40;55.40;;;;;;5044096;28;20367;-70
2022/06/05 09:59:11;;;;;;;5.60;4.57;;;23.40;55.50;;;;;;5048884;28;20025;-70
2022/06/05 10:01:49;;;;;;;5.22;4.72;;;23.50;55.60;;;;;;5047571;28;20021;-70
2022/06/05 10:04:15;;;;;;;5.75;4.82;;;23.50;55.40;;;;;;5048767;28;20032;-70
2022/06/05 10:06:46;;;;;;;5.43;4.93;;;23.50;55.60;;;;;;5040047;28;20017;-70
2022/06/05 10:09:15;;;;;;;3.83;3.42;;;23.40;55.70;;;;;;5044114;28;20560;-71
2022/06/05 10:11:50;;;;;;;5.30;4.80;;;23.40;55.90;;;;;;5044394;28;20039;-69
2022/06/05 10:14:35;;;;;;;4.13;3.72;;;23.40;56.00;;;;;;5050457;28;20475;-70
2022/06/05 10:17:24;;;;;;;4.85;4.28;;;23.50;56.00;;;;;;5065698;28;20098;-70
2022/06/05 10:20:01;;;;;;;5.60;4.57;;;23.50;55.90;;;;;;5053864;28;20028;-69
2022/06/05 10:22:31;;;;;;;4.65;4.10;;;23.50;55.80;;;;;;5051565;28;20028;-69
2022/06/05 10:25:29;;;;;;;4.93;4.13;;;23.50;55.70;;;;;;5048594;28;20025;-70
2022/06/05 10:27:59;;;;;;;5.10;4.60;;;23.50;55.60;;;;;;5048464;28;20036;-70
2022/06/05 10:30:31;;;;;;;4.65;4.10;;;23.50;55.60;;;;;;5046245;28;20013;-69
2022/06/05 10:33:04;;;;;;;3.97;3.53;;;23.50;55.60;;;;;;5079532;28;20394;-70
2022/06/05 10:35:53;;;;;;;5.55;4.38;;;23.60;55.70;;;;;;5045301;28;20661;-70
2022/06/05 10:38:18;;;;;;;5.25;4.00;;;23.50;55.70;;;;;;5042987;28;20390;-71
2022/06/05 10:40:50;;;;;;;4.43;3.72;;;23.50;56.00;;;;;;5048298;28;20017;-69
2022/06/05 10:43:28;;;;;;;4.00;3.60;;;23.60;56.00;;;;;;5063676;28;20382;-70
2022/06/05 10:46:01;;;;;;;4.45;3.83;;;23.70;56.00;;;;;;5047428;28;20017;-70
2022/06/05 10:49:03;;;;;;;4.53;4.05;;;23.70;55.80;;;;;;5044069;28;20576;-69
2022/06/05 10:51:49;;;;;;;4.68;4.25;;;23.60;56.00;;;;;;5001546;28;20037;-69
2022/06/05 10:54:14;;;;;;;4.97;4.32;;;23.50;56.10;;;;;;5045985;28;20036;-70
2022/06/05 10:57:04;;;;;;;5.35;4.85;;;23.50;56.30;;;;;;5048056;28;20025;-69
2022/06/05 11:00:04;;;;;;;4.45;3.83;;;23.40;56.40;;;;;;5055153;28;20112;-69
2022/06/05 11:02:41;;;;;;;4.55;3.17;;;23.40;56.70;;;;;;5044213;28;20035;-70
2022/06/05 11:05:38;;;;;;;4.18;3.78;;;23.60;56.60;;;;;;5048786;28;20067;-69
2022/06/05 11:08:41;;;;;;;4.93;4.47;;;23.50;56.60;;;;;;5047965;28;20017;-70
2022/06/05 11:14:32;;;;;;;4.65;4.13;;;23.50;56.70;;;;;;5047058;28;20060;-70
2022/06/05 11:17:18;;;;;;;6.38;4.78;;;23.50;56.60;;;;;;5046265;28;20108;-70
2022/06/05 11:19:53;;;;;;;4.60;4.20;;;23.40;56.80;;;;;;5045659;28;20021;-68
2022/06/05 11:22:21;;;;;;;5.43;4.90;;;23.40;56.70;;;;;;5046534;28;20443;-70
2022/06/05 11:24:56;;;;;;;4.95;4.53;;;23.40;56.40;;;;;;5048279;28;20032;-69
2022/06/05 11:27:51;;;;;;;4.57;4.18;;;23.30;56.50;;;;;;5046472;28;20035;-69
2022/06/05 11:30:37;;;;;;;4.40;4.00;;;23.30;56.60;;;;;;5039928;28;20152;-69
2022/06/05 11:33:12;;;;;;;5.20;3.90;;;23.30;56.60;;;;;;5050084;28;20099;-70
2022/06/05 11:36:06;;;;;;;4.72;4.25;;;23.40;56.50;;;;;;5045382;28;21115;-70
2022/06/05 11:38:50;;;;;;;5.80;4.47;;;23.50;56.20;;;;;;5047542;28;20043;-71
2022/06/05 11:41:30;;;;;;;4.40;4.00;;;23.30;56.30;;;;;;5047017;28;20025;-70
2022/06/05 11:44:18;;;;;;;4.45;3.95;;;23.30;56.40;;;;;;5046492;28;20113;-70
2022/06/05 11:46:53;;;;;;;5.28;3.90;;;23.30;56.40;;;;;;5048032;28;20056;-69
2022/06/05 11:49:35;;;;;;;5.20;4.63;;;23.30;57.10;;;;;;5045414;28;20078;-69
2022/06/05 11:52:26;;;;;;;4.93;4.15;;;23.30;56.40;;;;;;5046343;28;20025;-69
2022/06/05 11:55:11;;;;;;;4.55;4.15;;;23.30;56.50;;;;;;5048349;28;20086;-69
2022/06/05 11:57:41;;;;;;;7.00;4.55;;;23.20;56.70;;;;;;5053325;28;20093;-69
2022/06/05 12:00:07;;;;;;;4.38;3.90;;;23.10;57.00;;;;;;5047859;28;20089;-70
2022/06/05 12:02:59;;;;;;;4.53;4.13;;;23.10;57.10;;;;;;5048487;28;20029;-70
2022/06/05 12:05:47;;;;;;;4.28;3.58;;;23.10;57.30;;;;;;5050083;28;20111;-70
2022/06/05 12:08:30;;;;;;;5.68;4.45;;;23.00;57.60;;;;;;5047255;28;20457;-69
2022/06/05 12:11:14;;;;;;;3.85;3.55;;;22.90;58.00;;;;;;5047285;28;20025;-70
2022/06/05 12:14:04;;;;;;;3.47;3.13;;;23.00;58.20;;;;;;5045852;28;20148;-70
2022/06/05 12:16:38;;;;;;;3.95;3.50;;;23.10;58.20;;;;;;5049150;28;20028;-70
2022/06/05 12:19:13;;;;;;;3.83;3.47;;;23.10;58.40;;;;;;5047607;28;20075;-70
2022/06/05 12:22:00;;;;;;;3.60;3.25;;;23.10;58.60;;;;;;5046034;28;20025;-70
2022/06/05 12:25:00;;;;;;;5.82;3.75;;;23.10;58.90;;;;;;5045341;28;20406;-70
2022/06/05 12:27:42;;;;;;;4.53;4.07;;;23.00;59.30;;;;;;5045488;28;20044;-69
2022/06/05 12:30:14;;;;;;;;;;;22.90;59.70;;;;;;5046970;28;20036;-69
2022/06/05 12:32:58;;;;;;;5.13;4.65;;;22.90;60.10;;;;;;5044294;28;19917;-70
2022/06/05 12:35:35;;;;;;;7.05;5.75;;;22.80;60.90;;;;;;5047399;28;20025;-70
2022/06/05 12:38:19;;;;;;;7.05;6.45;;;22.50;62.20;;;;;;5044631;28;20398;-70
2022/06/05 12:41:15;;;;;;;5.68;4.10;;;22.30;63.50;;;;;;5057784;28;20041;-70
2022/06/05 12:43:53;;;;;;;6.43;5.10;;;22.20;63.90;;;;;;5046724;28;20029;-70
2022/06/05 12:46:44;;;;;;;6.10;5.50;;;22.10;64.60;;;;;;5047404;28;20029;-69
2022/06/05 12:49:24;;;;;;;5.78;5.28;;;22.10;65.20;;;;;;5048831;28;20059;-69
2022/06/05 12:52:19;;;;;;;5.78;5.03;;;21.90;66.00;;;;;;5049517;28;20028;-69
2022/06/05 12:55:08;;;;;;;6.90;6.30;;;21.90;66.10;;;;;;5045541;28;20033;-69
2022/06/05 12:57:44;;;;;;;5.72;5.15;;;21.80;67.30;;;;;;5047460;28;20029;-69
2022/06/05 13:00:36;;;;;;;7.63;5.85;;;21.60;67.40;;;;;;5048388;28;20041;-70
2022/06/05 13:03:17;;;;;;;5.50;4.70;;;21.60;67.70;;;;;;5050425;28;20096;-69
2022/06/05 13:05:48;;;;;;;5.43;4.93;;;21.60;67.90;;;;;;5046827;28;20021;-69
2022/06/05 13:08:22;;;;;;;4.85;4.45;;;21.70;67.90;;;;;;5049275;28;20482;-69
2022/06/05 13:11:00;;;;;;;6.50;5.90;;;21.70;68.10;;;;;;5050165;28;20029;-69
2022/06/05 13:13:53;;;;;;;5.10;4.63;;;21.70;68.50;;;;;;5047306;28;20485;-69
2022/06/05 13:16:32;;;;;;;6.57;5.97;;;21.80;68.30;;;;;;5043577;28;20549;-70
2022/06/05 13:19:20;;;;;;;5.82;5.22;;;21.80;68.50;;;;;;5046440;28;20168;-70
2022/06/05 13:21:54;;;;;;;5.85;5.32;;;21.80;68.50;;;;;;5050393;28;20104;-70
2022/06/05 13:25:05;;;;;;;5.40;4.90;;;21.80;68.70;;;;;;5051213;28;20032;-70
2022/06/05 13:28:09;;;;;;;6.03;5.53;;;21.90;68.50;;;;;;5051652;28;20056;-71
2022/06/05 13:31:01;;;;;;;5.32;4.82;;;21.90;68.50;;;;;;5047443;28;20036;-70
2022/06/05 13:33:41;;;;;;;5.15;4.65;;;22.00;68.40;;;;;;5049176;28;20017;-70
2022/06/05 13:36:26;;;;;;;7.13;6.43;;;22.10;68.40;;;;;;5050641;28;20024;-71